Terminal Aerodrome Forecast
Issued by NWS

Home | Current Version | Previous Version | Graphics & Text | Print | Product List | Glossary On
Versions: 1 2 3 4 5 6 7 8 9 10 11 12 13 14 15 16 17 18 19 20 21 22 23 24 25 26 27
098
FTUS43 KGRB 221550 AAB
TAFMTW
TAF AMD
KMTW 221550Z 2216/2312 23003KT 2SM -DZ BR OVC002
     FM221900 24003KT 2SM -DZ BR OVC003
     FM222300 29003KT 1SM BR OVC004
     FM230100 VRB03KT 1/2SM FG OVC003=

USA.gov is the U.S. government's official web portal to all federal, state and local government web resources and services.